createdAt,value
2019-04-21T00:01:44.683Z,6.90
2019-04-21T00:07:00.438Z,6.80
2019-04-21T00:09:36.303Z,6.80
2019-04-21T00:12:04.005Z,6.70
2019-04-21T00:14:24.929Z,6.60
2019-04-21T00:24:30.499Z,6.40
2019-04-21T00:32:00.367Z,6.20
2019-04-21T00:34:15.341Z,6.20
2019-04-21T00:36:57.086Z,6.20
2019-04-21T00:39:43.693Z,6.20
2019-04-21T00:42:05.408Z,6.10
2019-04-21T00:44:26.878Z,6.10
2019-04-21T00:47:00.583Z,6.10
2019-04-21T00:52:24.688Z,6.10
2019-04-21T00:54:52.110Z,6.10
2019-04-21T01:02:10.910Z,6.00
2019-04-21T01:07:17.883Z,6.00
2019-04-21T01:09:37.347Z,6.00
2019-04-21T01:12:12.458Z,5.90
2019-04-21T01:14:49.988Z,5.80
2019-04-21T01:17:13.036Z,5.80
2019-04-21T01:27:21.122Z,5.60
2019-04-21T01:29:59.806Z,5.70
2019-04-21T01:32:31.477Z,5.70
2019-04-21T01:34:57.630Z,5.70
2019-04-21T01:37:34.437Z,5.70
2019-04-21T01:40:06.529Z,5.70
2019-04-21T01:42:28.538Z,5.80
2019-04-21T01:47:25.217Z,5.70
2019-04-21T01:52:40.918Z,5.50
2019-04-21T01:55:09.484Z,5.60
2019-04-21T01:57:45.205Z,5.40
2019-04-21T02:00:07.041Z,5.30
2019-04-21T02:02:54.930Z,5.20
2019-04-21T02:10:23.779Z,5.10
2019-04-21T02:12:48.907Z,5.10
2019-04-21T02:17:49.720Z,5.30
2019-04-21T02:20:12.229Z,5.40
2019-04-21T02:23:06.398Z,5.40
2019-04-21T02:38:03.908Z,5.20
2019-04-21T02:40:35.657Z,5.20
2019-04-21T02:50:28.232Z,5.10
2019-04-21T02:58:09.749Z,5.00
2019-04-21T03:00:30.278Z,4.90
2019-04-21T03:05:50.532Z,4.90
2019-04-21T03:08:15.413Z,4.80
2019-04-21T03:13:21.608Z,4.70
2019-04-21T03:15:53.360Z,6.50
2019-04-21T03:18:38.029Z,4.60
2019-04-21T03:20:56.846Z,4.50
2019-04-21T03:25:52.209Z,4.40
2019-04-21T03:38:22.309Z,4.30
2019-04-21T03:45:46.261Z,4.40
2019-04-21T03:48:17.327Z,4.40
2019-04-21T04:11:12.371Z,4.30
2019-04-21T04:13:47.332Z,4.20
2019-04-21T04:16:06.105Z,4.00
2019-04-21T04:21:12.310Z,3.90
2019-04-21T04:23:48.478Z,3.80
2019-04-21T04:26:09.084Z,3.80
2019-04-21T04:31:22.287Z,3.70
2019-04-21T04:36:15.659Z,3.60
2019-04-21T04:41:16.289Z,3.60
2019-04-21T04:43:42.168Z,3.60
2019-04-21T04:46:16.030Z,3.60
2019-04-21T04:48:43.313Z,3.60
2019-04-21T04:51:11.964Z,3.60
2019-04-21T04:56:16.356Z,3.70
2019-04-21T04:59:10.796Z,3.70
2019-04-21T05:01:21.578Z,3.70
2019-04-21T05:13:55.380Z,3.80
2019-04-21T05:26:06.862Z,4.40
2019-04-21T05:31:35.058Z,4.60
2019-04-21T05:39:24.789Z,5.10
2019-04-21T05:41:50.849Z,5.30
2019-04-21T05:44:44.385Z,5.40
2019-04-21T05:47:14.189Z,5.60
2019-04-21T05:49:40.129Z,5.70
2019-04-21T05:52:02.526Z,5.90
2019-04-21T05:54:44.027Z,6.10
2019-04-21T05:57:11.823Z,6.20
2019-04-21T05:59:47.284Z,6.40
2019-04-21T06:07:21.549Z,6.70
2019-04-21T06:12:18.231Z,6.80
2019-04-21T06:27:27.490Z,8.10
2019-04-21T06:42:25.482Z,8.70
2019-04-21T06:49:55.307Z,9.30
2019-04-21T06:55:02.583Z,9.60
2019-04-21T06:59:58.718Z,10.00
2019-04-21T07:05:00.483Z,10.40
2019-04-21T07:07:27.842Z,10.40
2019-04-21T07:10:09.087Z,10.60
2019-04-21T07:12:29.578Z,10.80
2019-04-21T07:14:59.475Z,11.00
2019-04-21T07:17:28.172Z,11.20
2019-04-21T07:20:02.168Z,11.40
2019-04-21T07:22:33.745Z,11.60
2019-04-21T07:25:02.734Z,11.70
2019-04-21T07:27:31.995Z,11.90
2019-04-21T07:30:04.623Z,12.20
2019-04-21T07:32:26.802Z,12.40
2019-04-21T07:35:06.725Z,12.60
2019-04-21T07:37:31.733Z,12.80
2019-04-21T07:39:55.015Z,13.00
2019-04-21T07:42:26.723Z,13.10
2019-04-21T07:44:53.455Z,13.30
2019-04-21T07:47:36.979Z,13.40
2019-04-21T07:50:34.718Z,13.60
2019-04-21T07:53:23.050Z,14.10
2019-04-21T07:55:30.730Z,14.30
2019-04-21T08:01:07.746Z,14.60
2019-04-21T08:03:19.417Z,14.80
2019-04-21T08:05:53.001Z,14.90
2019-04-21T08:08:23.205Z,15.10
2019-04-21T08:10:55.316Z,15.20
2019-04-21T08:13:29.868Z,15.40
2019-04-21T08:18:27.080Z,15.60
2019-04-21T08:20:58.585Z,15.70
2019-04-21T08:26:02.941Z,15.90
2019-04-21T08:28:29.990Z,19.70
2019-04-21T08:30:54.228Z,16.40
2019-04-21T08:33:37.191Z,16.60
2019-04-21T08:38:31.369Z,16.80
2019-04-21T08:40:57.432Z,17.00
2019-04-21T08:43:37.047Z,17.00
2019-04-21T08:45:52.621Z,17.30
2019-04-21T08:48:22.615Z,17.40
2019-04-21T08:51:06.793Z,17.50
2019-04-21T08:53:24.726Z,17.50
2019-04-21T08:58:34.104Z,17.90
2019-04-21T09:01:19.157Z,17.90
2019-04-21T09:03:59.833Z,18.00
2019-04-21T09:06:52.789Z,18.00
2019-04-21T09:11:42.191Z,18.50
2019-04-21T09:14:07.307Z,18.50
2019-04-21T09:16:35.161Z,18.80
2019-04-21T09:21:45.423Z,19.00
2019-04-21T09:24:11.701Z,19.00
2019-04-21T09:26:35.593Z,19.20
2019-04-21T09:29:04.329Z,19.20
2019-04-21T09:31:25.956Z,19.20
2019-04-21T09:33:56.994Z,19.20
2019-04-21T09:36:25.442Z,19.40
2019-04-21T09:39:00.075Z,19.40
2019-04-21T09:41:25.804Z,19.60
2019-04-21T09:43:55.811Z,19.60
2019-04-21T09:46:23.458Z,19.60
2019-04-21T09:48:58.631Z,19.80
2019-04-21T09:51:22.004Z,19.90
2019-04-21T09:53:58.310Z,19.90
2019-04-21T09:56:31.202Z,19.90
2019-04-21T09:58:57.359Z,19.90
2019-04-21T10:01:28.797Z,20.00
2019-04-21T10:03:56.443Z,20.10
2019-04-21T10:06:21.420Z,20.00
2019-04-21T10:08:57.584Z,20.00
2019-04-21T10:11:21.069Z,20.00
2019-04-21T10:13:50.817Z,20.10
2019-04-21T10:16:26.952Z,20.30
2019-04-21T10:18:56.681Z,20.30
2019-04-21T10:21:27.597Z,20.30
2019-04-21T10:23:55.433Z,20.30
2019-04-21T10:26:24.344Z,20.40
2019-04-21T10:28:53.017Z,20.50
2019-04-21T10:31:22.703Z,20.60
2019-04-21T10:34:11.516Z,20.50
2019-04-21T10:36:40.801Z,20.50
2019-04-21T10:39:29.482Z,20.60
2019-04-21T10:41:59.492Z,20.80
2019-04-21T10:44:29.351Z,20.90
2019-04-21T10:46:58.483Z,21.00
2019-04-21T10:49:27.001Z,21.00
2019-04-21T10:51:57.076Z,21.00
2019-04-21T10:54:27.225Z,21.20
2019-04-21T10:56:56.675Z,21.10
2019-04-21T10:59:25.165Z,21.20
2019-04-21T11:01:54.807Z,21.20
2019-04-21T11:04:29.657Z,21.40
2019-04-21T11:06:59.409Z,21.40
2019-04-21T11:09:26.336Z,21.40
2019-04-21T11:11:55.743Z,21.40
2019-04-21T11:14:25.367Z,21.50
2019-04-21T11:16:54.848Z,21.50
2019-04-21T11:19:24.306Z,21.60
2019-04-21T11:21:52.735Z,21.50
2019-04-21T11:24:21.143Z,21.50
2019-04-21T11:26:49.752Z,21.50
2019-04-21T11:29:19.110Z,21.60
2019-04-21T11:31:47.668Z,21.60
2019-04-21T11:34:16.085Z,21.60
2019-04-21T11:36:45.679Z,21.70
2019-04-21T11:39:35.127Z,21.70
2019-04-21T11:41:52.481Z,21.60
2019-04-21T11:44:23.144Z,21.60
2019-04-21T11:46:52.117Z,21.60
2019-04-21T11:49:22.235Z,21.70
2019-04-21T11:51:51.171Z,21.70
2019-04-21T11:54:19.729Z,21.60
2019-04-21T11:56:48.649Z,21.70
2019-04-21T11:59:17.494Z,21.70
2019-04-21T12:01:45.991Z,21.70
2019-04-21T12:04:15.971Z,21.80
2019-04-21T12:06:48.715Z,21.90
2019-04-21T12:09:14.868Z,21.80
2019-04-21T12:11:43.401Z,21.80
2019-04-21T12:14:12.118Z,21.80
2019-04-21T12:16:41.206Z,21.80
2019-04-21T12:19:09.923Z,21.90
2019-04-21T12:21:49.220Z,21.80
2019-04-21T12:24:09.065Z,21.90
2019-04-21T12:26:37.929Z,21.90
2019-04-21T12:29:07.970Z,22.10
2019-04-21T12:31:47.659Z,22.10
2019-04-21T12:34:16.299Z,22.00
2019-04-21T12:36:44.984Z,22.00
2019-04-21T12:39:14.905Z,21.90
2019-04-21T12:41:44.565Z,21.80
2019-04-21T12:44:13.081Z,21.90
2019-04-21T12:46:41.494Z,22.00
2019-04-21T12:49:09.977Z,22.10
2019-04-21T12:51:39.771Z,22.00
2019-04-21T12:54:09.740Z,22.00
2019-04-21T12:56:38.673Z,21.90
2019-04-21T12:59:07.996Z,22.00
2019-04-21T13:01:37.056Z,22.00
2019-04-21T13:04:06.071Z,22.00
2019-04-21T13:06:34.908Z,22.10
2019-04-21T13:09:09.370Z,22.10
2019-04-21T13:11:35.535Z,22.20
2019-04-21T13:14:04.183Z,19.50
2019-04-21T13:16:33.670Z,22.00
2019-04-21T13:19:02.995Z,22.10
2019-04-21T13:21:31.976Z,22.00
2019-04-21T13:24:00.985Z,22.00
2019-04-21T13:26:38.683Z,22.00
2019-04-21T13:29:00.554Z,22.10
2019-04-21T13:31:29.997Z,22.20
2019-04-21T13:33:59.862Z,22.10
2019-04-21T13:36:29.633Z,22.10
2019-04-21T13:39:36.088Z,22.20
2019-04-21T13:41:42.836Z,22.20
2019-04-21T13:44:15.539Z,22.20
2019-04-21T13:46:45.188Z,22.10
2019-04-21T13:49:14.067Z,22.20
2019-04-21T13:51:43.977Z,22.30
2019-04-21T13:54:13.836Z,22.20
2019-04-21T13:56:42.662Z,22.20
2019-04-21T13:59:11.073Z,22.10
2019-04-21T14:01:39.700Z,22.30
2019-04-21T14:04:09.407Z,22.30
2019-04-21T14:06:38.406Z,22.30
2019-04-21T14:09:09.797Z,22.20
2019-04-21T14:11:38.208Z,22.30
2019-04-21T14:14:08.135Z,22.30
2019-04-21T14:16:38.091Z,22.30
2019-04-21T14:19:07.607Z,22.30
2019-04-21T14:21:37.075Z,22.20
2019-04-21T14:24:06.682Z,22.20
2019-04-21T14:26:36.277Z,22.30
2019-04-21T14:29:05.800Z,22.30
2019-04-21T14:31:34.650Z,22.20
2019-04-21T14:34:03.899Z,22.10
2019-04-21T14:36:32.685Z,22.20
2019-04-21T14:39:02.741Z,22.30
2019-04-21T14:41:32.566Z,22.40
2019-04-21T14:44:02.772Z,22.50
2019-04-21T14:46:33.278Z,22.50
2019-04-21T14:49:06.426Z,22.50
2019-04-21T14:51:43.228Z,22.40
2019-04-21T14:54:31.410Z,22.30
2019-04-21T14:57:00.900Z,22.30
2019-04-21T14:59:31.158Z,22.40
2019-04-21T15:01:59.959Z,22.40
2019-04-21T15:04:28.601Z,22.50
2019-04-21T15:06:57.090Z,22.40
2019-04-21T15:09:25.525Z,22.40
2019-04-21T15:11:53.961Z,22.40
2019-04-21T15:14:22.423Z,22.50
2019-04-21T15:16:51.228Z,22.50
2019-04-21T15:19:20.451Z,22.50
2019-04-21T15:21:50.251Z,22.50
2019-04-21T15:24:20.387Z,22.40
2019-04-21T15:26:51.568Z,22.40
2019-04-21T15:29:20.447Z,22.40
2019-04-21T15:31:50.514Z,22.40
2019-04-21T15:34:19.569Z,22.40
2019-04-21T15:36:50.320Z,22.30
2019-04-21T15:39:19.520Z,22.40
2019-04-21T15:41:48.323Z,22.40
2019-04-21T15:44:16.776Z,22.40
2019-04-21T15:46:46.087Z,22.30
2019-04-21T15:49:15.380Z,22.30
2019-04-21T15:51:44.253Z,22.40
2019-04-21T15:54:12.737Z,22.40
2019-04-21T15:56:42.786Z,22.40
2019-04-21T15:59:16.651Z,22.30
2019-04-21T16:01:46.750Z,22.30
2019-04-21T16:04:16.719Z,22.30
2019-04-21T16:06:45.695Z,22.20
2019-04-21T16:09:16.663Z,22.20
2019-04-21T16:11:44.401Z,22.30
2019-04-21T16:14:14.360Z,22.20
2019-04-21T16:16:43.321Z,22.20
2019-04-21T16:19:12.272Z,22.20
2019-04-21T16:21:44.305Z,22.20
2019-04-21T16:24:12.270Z,22.20
2019-04-21T16:26:40.864Z,22.20
2019-04-21T16:29:11.297Z,22.20
2019-04-21T16:31:40.375Z,22.20
2019-04-21T16:34:09.296Z,22.20
2019-04-21T16:36:38.098Z,22.10
2019-04-21T16:39:07.414Z,22.20
2019-04-21T16:41:36.191Z,22.20
2019-04-21T16:44:05.080Z,22.20
2019-04-21T16:46:33.670Z,22.10
2019-04-21T16:49:02.100Z,22.00
2019-04-21T16:51:32.160Z,22.00
2019-04-21T16:54:02.234Z,21.90
2019-04-21T16:56:33.123Z,21.90
2019-04-21T16:59:03.334Z,21.90
2019-04-21T17:01:32.442Z,21.90
2019-04-21T17:04:02.235Z,21.70
2019-04-21T17:06:31.209Z,21.60
2019-04-21T17:09:00.928Z,21.50
2019-04-21T17:11:34.724Z,21.40
2019-04-21T17:14:00.526Z,21.20
2019-04-21T17:16:55.166Z,21.10
2019-04-21T17:19:09.162Z,21.00
2019-04-21T17:21:30.058Z,20.80
2019-04-21T17:23:58.939Z,20.70
2019-04-21T17:26:28.896Z,20.60
2019-04-21T17:28:58.686Z,20.50
2019-04-21T17:31:28.590Z,20.30
2019-04-21T17:34:02.147Z,20.20
2019-04-21T17:36:27.472Z,20.10
2019-04-21T17:38:55.872Z,20.00
2019-04-21T17:41:33.129Z,19.90
2019-04-21T17:43:56.152Z,19.70
2019-04-21T17:46:33.326Z,19.60
2019-04-21T17:48:54.956Z,19.50
2019-04-21T17:51:28.142Z,19.40
2019-04-21T17:54:00.774Z,19.20
2019-04-21T17:56:55.070Z,19.20
2019-04-21T17:59:28.019Z,19.10
2019-04-21T18:01:47.452Z,19.00
2019-04-21T18:04:21.186Z,18.90
2019-04-21T18:06:49.109Z,18.80
2019-04-21T18:09:28.687Z,18.70
2019-04-21T18:11:51.049Z,18.70
2019-04-21T18:14:07.327Z,18.60
2019-04-21T18:16:39.918Z,18.50
2019-04-21T18:19:06.803Z,18.40
2019-04-21T18:24:15.514Z,18.30
2019-04-21T18:26:49.127Z,18.20
2019-04-21T18:29:09.581Z,18.20
2019-04-21T18:31:44.800Z,18.20
2019-04-21T18:34:13.777Z,18.10
2019-04-21T18:39:32.496Z,17.90
2019-04-21T18:42:10.920Z,17.80
2019-04-21T18:44:56.193Z,17.70
2019-04-21T18:47:20.021Z,17.70
2019-04-21T18:49:52.364Z,17.60
2019-04-21T18:52:42.789Z,17.50
2019-04-21T18:55:09.850Z,17.50
2019-04-21T18:59:57.271Z,17.30
2019-04-21T19:02:26.368Z,17.10
2019-04-21T19:05:03.065Z,17.10
2019-04-21T19:07:45.546Z,17.00
2019-04-21T19:10:22.745Z,16.90
2019-04-21T19:13:09.125Z,16.70
2019-04-21T19:15:15.707Z,16.50
2019-04-21T19:20:19.401Z,16.40
2019-04-21T19:25:15.391Z,16.10
2019-04-21T19:27:43.708Z,16.00
2019-04-21T19:30:22.409Z,15.80
2019-04-21T19:35:01.551Z,15.50
2019-04-21T19:37:30.135Z,15.40
2019-04-21T19:40:09.688Z,15.30
2019-04-21T19:42:38.872Z,15.20
2019-04-21T19:47:48.789Z,14.90
2019-04-21T19:50:15.876Z,14.80
2019-04-21T19:54:58.635Z,14.70
2019-04-21T19:57:27.554Z,14.60
2019-04-21T20:05:02.102Z,14.20
2019-04-21T20:07:41.536Z,14.10
2019-04-21T20:10:21.315Z,14.00
2019-04-21T20:12:47.404Z,13.80
2019-04-21T20:22:34.938Z,13.50
2019-04-21T20:25:02.564Z,13.40
2019-04-21T20:27:36.266Z,13.30
2019-04-21T20:30:16.176Z,13.30
2019-04-21T20:32:42.695Z,13.20
2019-04-21T20:35:17.133Z,13.20
2019-04-21T20:37:41.761Z,13.00
2019-04-21T20:40:02.337Z,12.90
2019-04-21T20:42:38.919Z,12.80
2019-04-21T20:45:29.646Z,12.70
2019-04-21T20:47:35.279Z,12.70
2019-04-21T20:50:09.414Z,12.50
2019-04-21T20:52:48.022Z,12.40
2019-04-21T20:57:39.928Z,12.20
2019-04-21T21:00:12.952Z,12.20
2019-04-21T21:02:47.044Z,12.00
2019-04-21T21:05:05.286Z,12.00
2019-04-21T21:07:44.085Z,11.90
2019-04-21T21:12:52.726Z,11.80
2019-04-21T21:20:18.029Z,11.50
2019-04-21T21:22:42.276Z,11.50
2019-04-21T21:25:23.547Z,11.40
2019-04-21T21:27:42.256Z,11.30
2019-04-21T21:30:16.099Z,11.30
2019-04-21T21:32:52.117Z,11.20
2019-04-21T21:37:49.023Z,11.10
2019-04-21T21:40:18.101Z,11.10
2019-04-21T21:42:37.467Z,11.00
2019-04-21T21:45:06.098Z,10.90
2019-04-21T21:47:47.514Z,10.90
2019-04-21T21:50:11.066Z,10.80
2019-04-21T21:55:01.579Z,10.50
2019-04-21T22:00:04.723Z,10.40
2019-04-21T22:02:35.956Z,10.30
2019-04-21T22:05:08.717Z,10.20
2019-04-21T22:07:33.223Z,10.10
2019-04-21T22:10:00.485Z,9.80
2019-04-21T22:17:44.611Z,9.20
2019-04-21T22:20:13.329Z,9.00
2019-04-21T22:22:38.993Z,9.00
2019-04-21T22:25:09.135Z,9.10
2019-04-21T22:27:29.155Z,9.20
2019-04-21T22:35:02.089Z,9.20
2019-04-21T22:37:41.131Z,9.30
2019-04-21T22:40:11.235Z,9.30
2019-04-21T22:47:32.612Z,9.30
2019-04-21T22:49:57.276Z,9.40
2019-04-21T22:57:27.313Z,9.30
2019-04-21T22:59:59.946Z,9.30
2019-04-21T23:02:29.619Z,9.20
2019-04-21T23:04:58.331Z,9.10
2019-04-21T23:07:26.672Z,9.10
2019-04-21T23:09:55.739Z,9.00
2019-04-21T23:12:28.151Z,9.00
2019-04-21T23:17:48.279Z,8.90
2019-04-21T23:20:19.584Z,8.80
2019-04-21T23:27:44.072Z,8.60
2019-04-21T23:34:56.150Z,8.40
2019-04-21T23:40:01.068Z,8.10
2019-04-21T23:42:31.742Z,8.00
2019-04-21T23:47:34.587Z,7.80
2019-04-21T23:50:03.709Z,7.80
2019-04-21T23:52:25.609Z,7.80
2019-04-21T23:57:31.468Z,7.70
2019-04-21T23:59:56.144Z,7.70
